sensor_id;sensor_type;location;lat;lon;timestamp;P1;durP1;ratioP1;P2;durP2;ratioP2
76322;SDS011;65141;42.964;21.838;2023-02-07T00:00:21;34.70;;;17.40;;
76322;SDS011;65141;42.964;21.838;2023-02-07T00:02:47;29.88;;;16.98;;
76322;SDS011;65141;42.964;21.838;2023-02-07T00:05:14;28.83;;;16.48;;
76322;SDS011;65141;42.964;21.838;2023-02-07T00:07:41;29.00;;;14.40;;
76322;SDS011;65141;42.964;21.838;2023-02-07T00:10:07;25.83;;;12.63;;
76322;SDS011;65141;42.964;21.838;2023-02-07T00:12:33;21.25;;;12.27;;
76322;SDS011;65141;42.964;21.838;2023-02-07T00:15:00;25.77;;;12.90;;
76322;SDS011;65141;42.964;21.838;2023-02-07T00:17:27;20.05;;;10.80;;
76322;SDS011;65141;42.964;21.838;2023-02-07T00:19:53;21.65;;;12.30;;
76322;SDS011;65141;42.964;21.838;2023-02-07T00:22:19;22.42;;;12.43;;
76322;SDS011;65141;42.964;21.838;2023-02-07T00:24:45;21.00;;;12.23;;
76322;SDS011;65141;42.964;21.838;2023-02-07T00:27:11;20.83;;;12.63;;
76322;SDS011;65141;42.964;21.838;2023-02-07T00:29:37;25.00;;;12.13;;
76322;SDS011;65141;42.964;21.838;2023-02-07T00:32:04;24.38;;;12.15;;
76322;SDS011;65141;42.964;21.838;2023-02-07T00:34:30;22.33;;;11.68;;
76322;SDS011;65141;42.964;21.838;2023-02-07T00:36:58;22.27;;;12.27;;
76322;SDS011;65141;42.964;21.838;2023-02-07T00:39:24;21.63;;;12.85;;
76322;SDS011;65141;42.964;21.838;2023-02-07T00:41:50;22.98;;;12.35;;
76322;SDS011;65141;42.964;21.838;2023-02-07T00:44:16;18.27;;;11.15;;
76322;SDS011;65141;42.964;21.838;2023-02-07T00:46:42;19.52;;;11.05;;
76322;SDS011;65141;42.964;21.838;2023-02-07T00:49:09;24.27;;;12.68;;
76322;SDS011;65141;42.964;21.838;2023-02-07T00:51:35;17.13;;;10.38;;
76322;SDS011;65141;42.964;21.838;2023-02-07T00:54:01;21.17;;;11.35;;
76322;SDS011;65141;42.964;21.838;2023-02-07T00:56:28;20.45;;;11.80;;
76322;SDS011;65141;42.964;21.838;2023-02-07T00:58:54;22.50;;;10.48;;
76322;SDS011;65141;42.964;21.838;2023-02-07T01:01:21;20.33;;;11.68;;
76322;SDS011;65141;42.964;21.838;2023-02-07T01:03:48;23.00;;;12.32;;
76322;SDS011;65141;42.964;21.838;2023-02-07T01:06:14;24.35;;;12.40;;
76322;SDS011;65141;42.964;21.838;2023-02-07T01:08:41;23.10;;;10.90;;
76322;SDS011;65141;42.964;21.838;2023-02-07T01:11:09;21.77;;;11.82;;
76322;SDS011;65141;42.964;21.838;2023-02-07T01:13:35;21.48;;;11.52;;
76322;SDS011;65141;42.964;21.838;2023-02-07T01:16:02;24.90;;;12.50;;
76322;SDS011;65141;42.964;21.838;2023-02-07T01:18:28;22.30;;;11.48;;
76322;SDS011;65141;42.964;21.838;2023-02-07T01:20:54;22.83;;;12.32;;
76322;SDS011;65141;42.964;21.838;2023-02-07T01:23:20;26.63;;;13.00;;
76322;SDS011;65141;42.964;21.838;2023-02-07T01:25:46;20.70;;;11.55;;
76322;SDS011;65141;42.964;21.838;2023-02-07T01:28:12;22.25;;;12.70;;
76322;SDS011;65141;42.964;21.838;2023-02-07T01:30:40;21.60;;;11.68;;
76322;SDS011;65141;42.964;21.838;2023-02-07T01:33:06;20.65;;;12.07;;
76322;SDS011;65141;42.964;21.838;2023-02-07T01:35:32;21.52;;;12.30;;
76322;SDS011;65141;42.964;21.838;2023-02-07T01:37:59;22.48;;;12.18;;
76322;SDS011;65141;42.964;21.838;2023-02-07T01:40:27;21.02;;;10.45;;
76322;SDS011;65141;42.964;21.838;2023-02-07T01:42:53;22.00;;;12.90;;
76322;SDS011;65141;42.964;21.838;2023-02-07T01:45:30;23.05;;;12.85;;
76322;SDS011;65141;42.964;21.838;2023-02-07T01:47:58;21.55;;;11.10;;
76322;SDS011;65141;42.964;21.838;2023-02-07T01:50:25;23.35;;;11.80;;
76322;SDS011;65141;42.964;21.838;2023-02-07T01:52:51;22.05;;;11.18;;
76322;SDS011;65141;42.964;21.838;2023-02-07T01:55:21;22.35;;;12.07;;
76322;SDS011;65141;42.964;21.838;2023-02-07T01:57:48;24.90;;;12.55;;
76322;SDS011;65141;42.964;21.838;2023-02-07T02:00:14;21.27;;;12.85;;
76322;SDS011;65141;42.964;21.838;2023-02-07T02:02:41;23.98;;;12.82;;
76322;SDS011;65141;42.964;21.838;2023-02-07T02:05:07;23.13;;;11.90;;
76322;SDS011;65141;42.964;21.838;2023-02-07T02:07:34;24.70;;;12.73;;
76322;SDS011;65141;42.964;21.838;2023-02-07T02:10:00;25.17;;;12.23;;
76322;SDS011;65141;42.964;21.838;2023-02-07T02:36:05;20.90;;;12.60;;
76322;SDS011;65141;42.964;21.838;2023-02-07T02:38:34;21.52;;;13.48;;
76322;SDS011;65141;42.964;21.838;2023-02-07T02:41:04;27.67;;;13.95;;
76322;SDS011;65141;42.964;21.838;2023-02-07T02:43:35;28.42;;;14.05;;
76322;SDS011;65141;42.964;21.838;2023-02-07T02:46:11;25.10;;;13.77;;
76322;SDS011;65141;42.964;21.838;2023-02-07T02:48:39;25.35;;;13.20;;
76322;SDS011;65141;42.964;21.838;2023-02-07T02:51:06;22.75;;;12.88;;
76322;SDS011;65141;42.964;21.838;2023-02-07T02:53:32;22.45;;;12.15;;
76322;SDS011;65141;42.964;21.838;2023-02-07T03:03:49;21.60;;;11.40;;
76322;SDS011;65141;42.964;21.838;2023-02-07T03:06:32;22.67;;;10.85;;
76322;SDS011;65141;42.964;21.838;2023-02-07T03:09:21;15.93;;;7.93;;
76322;SDS011;65141;42.964;21.838;2023-02-07T03:11:54;20.60;;;8.85;;
76322;SDS011;65141;42.964;21.838;2023-02-07T03:14:26;21.90;;;10.45;;
76322;SDS011;65141;42.964;21.838;2023-02-07T03:19:36;18.52;;;9.40;;
76322;SDS011;65141;42.964;21.838;2023-02-07T03:22:05;19.27;;;10.32;;
76322;SDS011;65141;42.964;21.838;2023-02-07T03:24:35;20.30;;;11.48;;
76322;SDS011;65141;42.964;21.838;2023-02-07T03:27:03;24.75;;;10.23;;
76322;SDS011;65141;42.964;21.838;2023-02-07T03:29:30;22.70;;;11.57;;
76322;SDS011;65141;42.964;21.838;2023-02-07T03:31:59;22.77;;;9.75;;
76322;SDS011;65141;42.964;21.838;2023-02-07T03:34:48;20.20;;;10.27;;
76322;SDS011;65141;42.964;21.838;2023-02-07T03:37:20;19.35;;;10.45;;
76322;SDS011;65141;42.964;21.838;2023-02-07T03:39:48;19.92;;;9.25;;
76322;SDS011;65141;42.964;21.838;2023-02-07T03:42:16;22.10;;;10.48;;
76322;SDS011;65141;42.964;21.838;2023-02-07T03:44:46;21.13;;;10.40;;
76322;SDS011;65141;42.964;21.838;2023-02-07T03:47:16;22.45;;;10.48;;
76322;SDS011;65141;42.964;21.838;2023-02-07T03:49:42;18.33;;;9.75;;
76322;SDS011;65141;42.964;21.838;2023-02-07T03:52:08;21.90;;;10.30;;
76322;SDS011;65141;42.964;21.838;2023-02-07T03:54:34;23.58;;;11.98;;
76322;SDS011;65141;42.964;21.838;2023-02-07T03:57:00;24.63;;;11.40;;
76322;SDS011;65141;42.964;21.838;2023-02-07T03:59:26;22.48;;;12.40;;
76322;SDS011;65141;42.964;21.838;2023-02-07T04:01:53;22.48;;;10.98;;
76322;SDS011;65141;42.964;21.838;2023-02-07T04:04:19;22.73;;;10.48;;
76322;SDS011;65141;42.964;21.838;2023-02-07T04:06:45;64.90;;;26.63;;
76322;SDS011;65141;42.964;21.838;2023-02-07T04:09:11;91.18;;;40.78;;
76322;SDS011;65141;42.964;21.838;2023-02-07T04:11:37;50.28;;;27.73;;
76322;SDS011;65141;42.964;21.838;2023-02-07T04:14:03;35.85;;;19.08;;
76322;SDS011;65141;42.964;21.838;2023-02-07T04:16:29;52.28;;;29.95;;
76322;SDS011;65141;42.964;21.838;2023-02-07T04:18:56;72.65;;;40.47;;
76322;SDS011;65141;42.964;21.838;2023-02-07T04:21:22;49.00;;;27.88;;
76322;SDS011;65141;42.964;21.838;2023-02-07T04:23:48;45.25;;;24.92;;
76322;SDS011;65141;42.964;21.838;2023-02-07T04:26:14;35.55;;;20.45;;
76322;SDS011;65141;42.964;21.838;2023-02-07T04:28:40;31.08;;;14.02;;
76322;SDS011;65141;42.964;21.838;2023-02-07T04:31:06;22.90;;;11.40;;
76322;SDS011;65141;42.964;21.838;2023-02-07T04:33:32;19.88;;;10.98;;
76322;SDS011;65141;42.964;21.838;2023-02-07T04:35:59;23.92;;;10.43;;
76322;SDS011;65141;42.964;21.838;2023-02-07T04:38:26;22.90;;;10.75;;
76322;SDS011;65141;42.964;21.838;2023-02-07T04:40:56;26.20;;;11.18;;
76322;SDS011;65141;42.964;21.838;2023-02-07T04:43:22;20.08;;;10.40;;
76322;SDS011;65141;42.964;21.838;2023-02-07T04:45:48;24.10;;;13.07;;
76322;SDS011;65141;42.964;21.838;2023-02-07T04:48:14;24.27;;;11.18;;
76322;SDS011;65141;42.964;21.838;2023-02-07T04:50:40;20.67;;;10.85;;
76322;SDS011;65141;42.964;21.838;2023-02-07T04:53:06;20.45;;;10.98;;
76322;SDS011;65141;42.964;21.838;2023-02-07T04:55:33;20.20;;;11.35;;
76322;SDS011;65141;42.964;21.838;2023-02-07T04:58:01;23.45;;;10.85;;
76322;SDS011;65141;42.964;21.838;2023-02-07T05:00:27;23.88;;;12.90;;
76322;SDS011;65141;42.964;21.838;2023-02-07T05:02:53;19.75;;;11.77;;
76322;SDS011;65141;42.964;21.838;2023-02-07T05:05:19;22.52;;;11.90;;
76322;SDS011;65141;42.964;21.838;2023-02-07T05:07:45;24.90;;;11.55;;
76322;SDS011;65141;42.964;21.838;2023-02-07T05:10:11;19.70;;;11.50;;
76322;SDS011;65141;42.964;21.838;2023-02-07T05:12:37;22.42;;;11.60;;
76322;SDS011;65141;42.964;21.838;2023-02-07T05:15:03;23.67;;;10.77;;
76322;SDS011;65141;42.964;21.838;2023-02-07T05:17:30;34.45;;;14.02;;
76322;SDS011;65141;42.964;21.838;2023-02-07T05:19:59;23.10;;;12.20;;
76322;SDS011;65141;42.964;21.838;2023-02-07T05:22:25;21.83;;;10.85;;
76322;SDS011;65141;42.964;21.838;2023-02-07T05:24:51;23.27;;;11.07;;
76322;SDS011;65141;42.964;21.838;2023-02-07T05:27:17;22.58;;;11.20;;
76322;SDS011;65141;42.964;21.838;2023-02-07T05:29:43;22.45;;;11.05;;
76322;SDS011;65141;42.964;21.838;2023-02-07T05:32:12;22.27;;;11.27;;
76322;SDS011;65141;42.964;21.838;2023-02-07T05:34:58;22.52;;;11.80;;
76322;SDS011;65141;42.964;21.838;2023-02-07T05:37:24;19.08;;;10.30;;
76322;SDS011;65141;42.964;21.838;2023-02-07T05:39:50;22.08;;;9.82;;
76322;SDS011;65141;42.964;21.838;2023-02-07T05:42:16;21.45;;;11.23;;
76322;SDS011;65141;42.964;21.838;2023-02-07T05:44:43;22.85;;;10.27;;
76322;SDS011;65141;42.964;21.838;2023-02-07T05:47:09;19.75;;;11.05;;
76322;SDS011;65141;42.964;21.838;2023-02-07T05:49:35;23.80;;;11.35;;
76322;SDS011;65141;42.964;21.838;2023-02-07T05:52:03;20.20;;;10.80;;
76322;SDS011;65141;42.964;21.838;2023-02-07T05:54:29;16.52;;;9.43;;
76322;SDS011;65141;42.964;21.838;2023-02-07T05:56:55;21.15;;;11.48;;
76322;SDS011;65141;42.964;21.838;2023-02-07T05:59:21;21.55;;;10.68;;
76322;SDS011;65141;42.964;21.838;2023-02-07T06:01:47;21.58;;;12.45;;
76322;SDS011;65141;42.964;21.838;2023-02-07T06:04:13;22.92;;;11.90;;
76322;SDS011;65141;42.964;21.838;2023-02-07T06:06:39;24.88;;;11.40;;
76322;SDS011;65141;42.964;21.838;2023-02-07T06:09:05;22.45;;;11.63;;
76322;SDS011;65141;42.964;21.838;2023-02-07T06:11:32;21.33;;;9.68;;
76322;SDS011;65141;42.964;21.838;2023-02-07T06:13:58;25.50;;;12.90;;
76322;SDS011;65141;42.964;21.838;2023-02-07T06:16:24;19.10;;;10.57;;
76322;SDS011;65141;42.964;21.838;2023-02-07T06:18:50;22.63;;;11.02;;
76322;SDS011;65141;42.964;21.838;2023-02-07T06:21:16;20.80;;;12.00;;
76322;SDS011;65141;42.964;21.838;2023-02-07T06:23:42;20.48;;;10.80;;
76322;SDS011;65141;42.964;21.838;2023-02-07T06:26:10;24.33;;;11.02;;
76322;SDS011;65141;42.964;21.838;2023-02-07T06:28:37;22.67;;;10.93;;
76322;SDS011;65141;42.964;21.838;2023-02-07T06:31:03;23.67;;;11.20;;
76322;SDS011;65141;42.964;21.838;2023-02-07T06:33:29;26.10;;;10.35;;
76322;SDS011;65141;42.964;21.838;2023-02-07T06:35:55;18.05;;;9.43;;
76322;SDS011;65141;42.964;21.838;2023-02-07T06:38:21;18.17;;;9.93;;
76322;SDS011;65141;42.964;21.838;2023-02-07T06:40:47;22.27;;;10.65;;
76322;SDS011;65141;42.964;21.838;2023-02-07T06:43:13;22.30;;;10.73;;
76322;SDS011;65141;42.964;21.838;2023-02-07T06:45:40;16.85;;;8.13;;
76322;SDS011;65141;42.964;21.838;2023-02-07T06:48:06;16.40;;;9.25;;
76322;SDS011;65141;42.964;21.838;2023-02-07T06:50:33;19.10;;;9.40;;
76322;SDS011;65141;42.964;21.838;2023-02-07T06:52:59;19.05;;;11.15;;
76322;SDS011;65141;42.964;21.838;2023-02-07T06:55:35;21.50;;;10.52;;
76322;SDS011;65141;42.964;21.838;2023-02-07T06:58:02;19.77;;;9.60;;
76322;SDS011;65141;42.964;21.838;2023-02-07T07:00:28;21.50;;;11.15;;
76322;SDS011;65141;42.964;21.838;2023-02-07T07:02:54;15.68;;;8.10;;
76322;SDS011;65141;42.964;21.838;2023-02-07T07:05:20;19.45;;;9.20;;
76322;SDS011;65141;42.964;21.838;2023-02-07T07:07:47;25.70;;;12.50;;
76322;SDS011;65141;42.964;21.838;2023-02-07T07:10:13;22.05;;;12.05;;
76322;SDS011;65141;42.964;21.838;2023-02-07T07:12:39;22.73;;;10.80;;
76322;SDS011;65141;42.964;21.838;2023-02-07T07:15:05;24.25;;;11.63;;
76322;SDS011;65141;42.964;21.838;2023-02-07T07:17:32;21.23;;;11.02;;
76322;SDS011;65141;42.964;21.838;2023-02-07T07:19:58;20.90;;;11.25;;
76322;SDS011;65141;42.964;21.838;2023-02-07T07:22:24;22.83;;;10.77;;
76322;SDS011;65141;42.964;21.838;2023-02-07T07:24:50;21.88;;;11.88;;
76322;SDS011;65141;42.964;21.838;2023-02-07T07:27:17;20.25;;;9.85;;
76322;SDS011;65141;42.964;21.838;2023-02-07T07:29:43;19.42;;;11.07;;
76322;SDS011;65141;42.964;21.838;2023-02-07T07:32:09;17.30;;;9.98;;
76322;SDS011;65141;42.964;21.838;2023-02-07T07:34:39;21.13;;;10.38;;
76322;SDS011;65141;42.964;21.838;2023-02-07T07:37:05;19.08;;;8.95;;
76322;SDS011;65141;42.964;21.838;2023-02-07T07:39:31;17.40;;;9.15;;
76322;SDS011;65141;42.964;21.838;2023-02-07T07:41:57;20.27;;;10.38;;
76322;SDS011;65141;42.964;21.838;2023-02-07T07:44:23;16.42;;;9.85;;
76322;SDS011;65141;42.964;21.838;2023-02-07T07:46:49;22.08;;;10.48;;
76322;SDS011;65141;42.964;21.838;2023-02-07T07:49:16;22.48;;;11.32;;
76322;SDS011;65141;42.964;21.838;2023-02-07T07:51:43;22.92;;;11.45;;
76322;SDS011;65141;42.964;21.838;2023-02-07T07:54:10;22.42;;;10.32;;
76322;SDS011;65141;42.964;21.838;2023-02-07T07:56:36;20.17;;;9.88;;
76322;SDS011;65141;42.964;21.838;2023-02-07T07:59:02;20.40;;;10.40;;
76322;SDS011;65141;42.964;21.838;2023-02-07T08:01:28;21.27;;;10.30;;
76322;SDS011;65141;42.964;21.838;2023-02-07T08:03:54;12.93;;;6.30;;
76322;SDS011;65141;42.964;21.838;2023-02-07T08:06:20;14.30;;;7.35;;
76322;SDS011;65141;42.964;21.838;2023-02-07T08:08:46;19.20;;;9.93;;
76322;SDS011;65141;42.964;21.838;2023-02-07T08:11:12;18.67;;;10.25;;
76322;SDS011;65141;42.964;21.838;2023-02-07T08:13:38;22.02;;;11.30;;
76322;SDS011;65141;42.964;21.838;2023-02-07T08:16:05;15.73;;;8.52;;
76322;SDS011;65141;42.964;21.838;2023-02-07T08:18:38;21.25;;;11.65;;
76322;SDS011;65141;42.964;21.838;2023-02-07T08:21:04;19.85;;;10.57;;
76322;SDS011;65141;42.964;21.838;2023-02-07T08:23:30;21.90;;;11.30;;
76322;SDS011;65141;42.964;21.838;2023-02-07T08:25:56;26.67;;;12.35;;
76322;SDS011;65141;42.964;21.838;2023-02-07T08:28:23;24.20;;;11.70;;
76322;SDS011;65141;42.964;21.838;2023-02-07T08:30:49;21.80;;;10.65;;
76322;SDS011;65141;42.964;21.838;2023-02-07T08:33:15;23.38;;;11.68;;
76322;SDS011;65141;42.964;21.838;2023-02-07T08:35:42;16.55;;;9.38;;
76322;SDS011;65141;42.964;21.838;2023-02-07T08:38:08;21.13;;;11.38;;
76322;SDS011;65141;42.964;21.838;2023-02-07T08:40:34;21.48;;;8.52;;
76322;SDS011;65141;42.964;21.838;2023-02-07T08:43:01;22.27;;;13.00;;
76322;SDS011;65141;42.964;21.838;2023-02-07T08:45:30;12.07;;;6.95;;
76322;SDS011;65141;42.964;21.838;2023-02-07T08:47:56;27.35;;;12.70;;
76322;SDS011;65141;42.964;21.838;2023-02-07T08:50:23;24.45;;;11.48;;
76322;SDS011;65141;42.964;21.838;2023-02-07T08:52:49;22.15;;;9.82;;
76322;SDS011;65141;42.964;21.838;2023-02-07T08:55:15;22.73;;;12.05;;
76322;SDS011;65141;42.964;21.838;2023-02-07T08:57:41;22.17;;;10.45;;
76322;SDS011;65141;42.964;21.838;2023-02-07T09:00:08;18.65;;;8.60;;
76322;SDS011;65141;42.964;21.838;2023-02-07T09:02:34;38.53;;;18.50;;
76322;SDS011;65141;42.964;21.838;2023-02-07T09:05:01;20.65;;;10.77;;
76322;SDS011;65141;42.964;21.838;2023-02-07T09:07:27;16.65;;;8.43;;
76322;SDS011;65141;42.964;21.838;2023-02-07T09:09:53;21.25;;;10.60;;
76322;SDS011;65141;42.964;21.838;2023-02-07T09:12:19;20.42;;;9.73;;
76322;SDS011;65141;42.964;21.838;2023-02-07T09:14:45;24.17;;;11.23;;
76322;SDS011;65141;42.964;21.838;2023-02-07T09:17:11;21.85;;;10.77;;
76322;SDS011;65141;42.964;21.838;2023-02-07T09:19:37;27.83;;;12.90;;
76322;SDS011;65141;42.964;21.838;2023-02-07T09:22:03;18.13;;;10.07;;
76322;SDS011;65141;42.964;21.838;2023-02-07T09:24:29;22.90;;;10.57;;
76322;SDS011;65141;42.964;21.838;2023-02-07T09:26:56;24.17;;;11.95;;
76322;SDS011;65141;42.964;21.838;2023-02-07T09:29:22;25.15;;;11.77;;
76322;SDS011;65141;42.964;21.838;2023-02-07T09:31:49;24.23;;;11.85;;
76322;SDS011;65141;42.964;21.838;2023-02-07T09:34:15;14.75;;;8.98;;
76322;SDS011;65141;42.964;21.838;2023-02-07T09:36:41;16.85;;;7.97;;
76322;SDS011;65141;42.964;21.838;2023-02-07T09:39:08;21.83;;;10.20;;
76322;SDS011;65141;42.964;21.838;2023-02-07T09:44:43;20.58;;;10.15;;
76322;SDS011;65141;42.964;21.838;2023-02-07T09:49:42;20.58;;;9.90;;
76322;SDS011;65141;42.964;21.838;2023-02-07T09:52:10;22.58;;;10.43;;
76322;SDS011;65141;42.964;21.838;2023-02-07T10:02:39;21.25;;;10.02;;
76322;SDS011;65141;42.964;21.838;2023-02-07T10:05:18;18.60;;;9.63;;
76322;SDS011;65141;42.964;21.838;2023-02-07T10:07:44;17.92;;;9.35;;
76322;SDS011;65141;42.964;21.838;2023-02-07T10:10:15;13.02;;;6.13;;
76322;SDS011;65141;42.964;21.838;2023-02-07T10:20:24;16.33;;;8.80;;
76322;SDS011;65141;42.964;21.838;2023-02-07T10:26:08;17.58;;;8.90;;
76322;SDS011;65141;42.964;21.838;2023-02-07T10:30:53;10.23;;;5.97;;
76322;SDS011;65141;42.964;21.838;2023-02-07T10:33:23;18.00;;;8.82;;
76322;SDS011;65141;42.964;21.838;2023-02-07T10:35:49;19.17;;;10.18;;
76322;SDS011;65141;42.964;21.838;2023-02-07T10:40:47;15.30;;;7.28;;
76322;SDS011;65141;42.964;21.838;2023-02-07T10:43:21;19.00;;;8.60;;
76322;SDS011;65141;42.964;21.838;2023-02-07T10:45:50;17.58;;;7.60;;
76322;SDS011;65141;42.964;21.838;2023-02-07T10:48:18;14.52;;;7.28;;
76322;SDS011;65141;42.964;21.838;2023-02-07T10:50:44;22.13;;;11.30;;
76322;SDS011;65141;42.964;21.838;2023-02-07T10:53:10;19.55;;;11.65;;
76322;SDS011;65141;42.964;21.838;2023-02-07T10:55:54;14.73;;;8.18;;
76322;SDS011;65141;42.964;21.838;2023-02-07T10:58:23;16.52;;;8.55;;
76322;SDS011;65141;42.964;21.838;2023-02-07T11:00:50;15.00;;;7.15;;
76322;SDS011;65141;42.964;21.838;2023-02-07T11:03:18;12.35;;;6.50;;
76322;SDS011;65141;42.964;21.838;2023-02-07T11:05:58;15.38;;;8.50;;
76322;SDS011;65141;42.964;21.838;2023-02-07T11:08:30;16.40;;;8.27;;
76322;SDS011;65141;42.964;21.838;2023-02-07T11:10:58;13.88;;;7.50;;
76322;SDS011;65141;42.964;21.838;2023-02-07T11:13:25;17.27;;;9.30;;
76322;SDS011;65141;42.964;21.838;2023-02-07T11:21:01;14.65;;;8.50;;
76322;SDS011;65141;42.964;21.838;2023-02-07T11:23:27;20.20;;;12.48;;
76322;SDS011;65141;42.964;21.838;2023-02-07T11:35:37;12.95;;;7.85;;
76322;SDS011;65141;42.964;21.838;2023-02-07T11:38:14;14.70;;;8.75;;
76322;SDS011;65141;42.964;21.838;2023-02-07T11:45:35;16.42;;;10.55;;
76322;SDS011;65141;42.964;21.838;2023-02-07T11:48:02;20.38;;;9.23;;
76322;SDS011;65141;42.964;21.838;2023-02-07T11:50:34;15.70;;;9.45;;
76322;SDS011;65141;42.964;21.838;2023-02-07T11:53:03;17.60;;;9.88;;
76322;SDS011;65141;42.964;21.838;2023-02-07T11:55:33;17.08;;;8.00;;
76322;SDS011;65141;42.964;21.838;2023-02-07T11:58:01;19.17;;;10.25;;
76322;SDS011;65141;42.964;21.838;2023-02-07T12:00:28;16.38;;;10.60;;
76322;SDS011;65141;42.964;21.838;2023-02-07T12:05:36;15.55;;;8.80;;
76322;SDS011;65141;42.964;21.838;2023-02-07T12:08:05;11.18;;;6.85;;
76322;SDS011;65141;42.964;21.838;2023-02-07T12:10:35;15.20;;;8.73;;
76322;SDS011;65141;42.964;21.838;2023-02-07T12:13:11;17.10;;;8.93;;
76322;SDS011;65141;42.964;21.838;2023-02-07T12:15:44;15.60;;;8.82;;
76322;SDS011;65141;42.964;21.838;2023-02-07T12:20:46;17.67;;;8.85;;
76322;SDS011;65141;42.964;21.838;2023-02-07T12:23:28;17.77;;;8.43;;
76322;SDS011;65141;42.964;21.838;2023-02-07T12:25:57;17.15;;;8.35;;
76322;SDS011;65141;42.964;21.838;2023-02-07T12:28:33;20.75;;;10.90;;
76322;SDS011;65141;42.964;21.838;2023-02-07T12:31:04;18.02;;;9.70;;
76322;SDS011;65141;42.964;21.838;2023-02-07T12:33:41;20.48;;;11.95;;
76322;SDS011;65141;42.964;21.838;2023-02-07T12:36:13;16.73;;;8.32;;
76322;SDS011;65141;42.964;21.838;2023-02-07T12:39:01;20.50;;;9.40;;
76322;SDS011;65141;42.964;21.838;2023-02-07T12:41:31;14.30;;;9.13;;
76322;SDS011;65141;42.964;21.838;2023-02-07T12:45:00;15.23;;;7.50;;
76322;SDS011;65141;42.964;21.838;2023-02-07T13:08:36;20.65;;;10.80;;
76322;SDS011;65141;42.964;21.838;2023-02-07T13:16:09;21.30;;;12.07;;
76322;SDS011;65141;42.964;21.838;2023-02-07T13:18:40;23.70;;;15.32;;
76322;SDS011;65141;42.964;21.838;2023-02-07T13:21:10;17.83;;;10.55;;
76322;SDS011;65141;42.964;21.838;2023-02-07T13:23:40;20.80;;;11.38;;
76322;SDS011;65141;42.964;21.838;2023-02-07T13:26:09;20.60;;;10.48;;
76322;SDS011;65141;42.964;21.838;2023-02-07T13:28:40;20.60;;;10.82;;
76322;SDS011;65141;42.964;21.838;2023-02-07T13:31:09;22.60;;;11.48;;
76322;SDS011;65141;42.964;21.838;2023-02-07T13:33:37;16.85;;;9.65;;
76322;SDS011;65141;42.964;21.838;2023-02-07T13:47:07;16.67;;;8.45;;
76322;SDS011;65141;42.964;21.838;2023-02-07T13:57:36;23.52;;;11.90;;
76322;SDS011;65141;42.964;21.838;2023-02-07T14:00:22;23.40;;;12.82;;
76322;SDS011;65141;42.964;21.838;2023-02-07T14:02:50;25.55;;;15.57;;
76322;SDS011;65141;42.964;21.838;2023-02-07T14:05:21;21.88;;;13.75;;
76322;SDS011;65141;42.964;21.838;2023-02-07T14:08:21;15.32;;;9.20;;
76322;SDS011;65141;42.964;21.838;2023-02-07T14:10:47;26.58;;;12.52;;
76322;SDS011;65141;42.964;21.838;2023-02-07T14:16:06;20.45;;;11.57;;
76322;SDS011;65141;42.964;21.838;2023-02-07T14:31:50;28.92;;;10.82;;
76322;SDS011;65141;42.964;21.838;2023-02-07T14:34:19;58.83;;;18.27;;
76322;SDS011;65141;42.964;21.838;2023-02-07T14:36:45;73.40;;;25.25;;
76322;SDS011;65141;42.964;21.838;2023-02-07T14:41:38;50.35;;;18.20;;
76322;SDS011;65141;42.964;21.838;2023-02-07T14:44:06;95.00;;;35.97;;
76322;SDS011;65141;42.964;21.838;2023-02-07T14:49:01;46.03;;;18.00;;
76322;SDS011;65141;42.964;21.838;2023-02-07T14:56:36;29.33;;;14.95;;
76322;SDS011;65141;42.964;21.838;2023-02-07T14:59:04;38.30;;;15.30;;
76322;SDS011;65141;42.964;21.838;2023-02-07T15:01:31;54.67;;;19.35;;
76322;SDS011;65141;42.964;21.838;2023-02-07T15:04:00;39.20;;;15.10;;
76322;SDS011;65141;42.964;21.838;2023-02-07T15:06:26;38.97;;;17.17;;
76322;SDS011;65141;42.964;21.838;2023-02-07T15:08:57;29.05;;;13.70;;
76322;SDS011;65141;42.964;21.838;2023-02-07T15:11:24;41.08;;;17.95;;
76322;SDS011;65141;42.964;21.838;2023-02-07T15:13:52;28.73;;;13.40;;
76322;SDS011;65141;42.964;21.838;2023-02-07T15:21:15;20.83;;;10.10;;
76322;SDS011;65141;42.964;21.838;2023-02-07T15:23:42;18.40;;;9.80;;
76322;SDS011;65141;42.964;21.838;2023-02-07T15:26:09;22.42;;;11.45;;
76322;SDS011;65141;42.964;21.838;2023-02-07T15:28:36;22.13;;;11.13;;
76322;SDS011;65141;42.964;21.838;2023-02-07T15:31:10;16.42;;;8.48;;
76322;SDS011;65141;42.964;21.838;2023-02-07T15:33:47;20.75;;;11.13;;
76322;SDS011;65141;42.964;21.838;2023-02-07T15:38:59;21.38;;;10.63;;
76322;SDS011;65141;42.964;21.838;2023-02-07T15:41:26;17.13;;;10.10;;
76322;SDS011;65141;42.964;21.838;2023-02-07T15:44:02;19.15;;;9.57;;
76322;SDS011;65141;42.964;21.838;2023-02-07T15:49:29;24.95;;;12.57;;
76322;SDS011;65141;42.964;21.838;2023-02-07T15:52:19;21.98;;;10.80;;
76322;SDS011;65141;42.964;21.838;2023-02-07T15:54:45;14.93;;;8.20;;
76322;SDS011;65141;42.964;21.838;2023-02-07T15:59:38;23.60;;;11.70;;
76322;SDS011;65141;42.964;21.838;2023-02-07T16:02:09;24.05;;;11.60;;
76322;SDS011;65141;42.964;21.838;2023-02-07T16:04:38;20.33;;;11.00;;
76322;SDS011;65141;42.964;21.838;2023-02-07T16:07:11;20.98;;;11.38;;
76322;SDS011;65141;42.964;21.838;2023-02-07T16:09:44;13.77;;;8.32;;
76322;SDS011;65141;42.964;21.838;2023-02-07T16:14:52;24.30;;;12.80;;
76322;SDS011;65141;42.964;21.838;2023-02-07T16:17:20;25.50;;;12.75;;
76322;SDS011;65141;42.964;21.838;2023-02-07T16:19:47;23.85;;;11.60;;
76322;SDS011;65141;42.964;21.838;2023-02-07T16:22:13;23.05;;;12.27;;
76322;SDS011;65141;42.964;21.838;2023-02-07T16:24:42;29.38;;;15.40;;
76322;SDS011;65141;42.964;21.838;2023-02-07T16:27:26;23.10;;;12.27;;
76322;SDS011;65141;42.964;21.838;2023-02-07T16:29:56;28.65;;;15.32;;
76322;SDS011;65141;42.964;21.838;2023-02-07T16:32:22;29.80;;;16.20;;
76322;SDS011;65141;42.964;21.838;2023-02-07T16:34:49;31.88;;;16.77;;
76322;SDS011;65141;42.964;21.838;2023-02-07T16:37:16;30.30;;;15.00;;
76322;SDS011;65141;42.964;21.838;2023-02-07T16:39:42;29.52;;;14.35;;
76322;SDS011;65141;42.964;21.838;2023-02-07T16:42:10;28.17;;;15.13;;
76322;SDS011;65141;42.964;21.838;2023-02-07T16:44:38;35.85;;;17.55;;
76322;SDS011;65141;42.964;21.838;2023-02-07T16:47:04;40.03;;;19.85;;
76322;SDS011;65141;42.964;21.838;2023-02-07T16:49:30;31.67;;;18.58;;
76322;SDS011;65141;42.964;21.838;2023-02-07T16:51:57;26.48;;;13.85;;
76322;SDS011;65141;42.964;21.838;2023-02-07T16:54:23;28.35;;;13.27;;
76322;SDS011;65141;42.964;21.838;2023-02-07T16:56:51;26.17;;;12.38;;
76322;SDS011;65141;42.964;21.838;2023-02-07T16:59:19;27.33;;;13.70;;
76322;SDS011;65141;42.964;21.838;2023-02-07T17:01:46;23.95;;;13.20;;
76322;SDS011;65141;42.964;21.838;2023-02-07T17:04:12;52.70;;;24.95;;
76322;SDS011;65141;42.964;21.838;2023-02-07T17:06:39;39.88;;;20.13;;
76322;SDS011;65141;42.964;21.838;2023-02-07T17:09:15;40.72;;;19.50;;
76322;SDS011;65141;42.964;21.838;2023-02-07T17:11:42;44.67;;;22.00;;